Time;durP1;ratioP1;P1;durP2;ratioP2;P2;SDS_P1;SDS_P2;PMS_P1;PMS_P2;Temp;Humidity;BMP_temperature;BMP_pressure;BME280_temperature;BME280_humidity;BME280_pressure;Samples;Min_cycle;Max_cycle;Signal;HPM_P1;HPM_P2
2023/05/30 05:35:52;;;;;;;;;3.50;3.50;;;;;16.63;47.95;101841.44;5134090;27;45444;-60
2023/05/30 05:38:18;;;;;;;;;6.50;5.50;;;;;16.70;47.74;101832.03;5116915;27;45302;-62
2023/05/30 05:40:43;;;;;;;;;4.75;3.00;;;;;16.79;47.95;101841.50;5116537;27;45360;-61
2023/05/30 05:43:08;;;;;;;;;4.50;3.25;;;;;16.81;47.41;101836.88;5116542;27;45385;-61
2023/05/30 05:45:34;;;;;;;;;3.00;3.00;;;;;16.91;47.44;101844.41;5116504;27;45368;-62
2023/05/30 05:48:00;;;;;;;;;4.25;3.50;;;;;16.94;47.46;101846.06;5115588;27;48414;-60
2023/05/30 05:50:26;;;;;;;;;3.00;3.00;;;;;16.95;47.41;101851.41;5116800;27;45345;-60
2023/05/30 05:52:51;;;;;;;;;4.50;3.00;;;;;16.84;47.26;101815.88;5116976;27;45234;-60
2023/05/30 05:55:16;;;;;;;;;7.00;3.25;;;;;17.03;47.76;101843.72;5115643;27;49750;-61
2023/05/30 05:57:42;;;;;;;;;5.75;3.00;;;;;17.13;47.42;101843.22;5116005;27;45194;-58
2023/05/30 06:00:08;;;;;;;;;11.75;4.75;;;;;17.15;46.51;101841.31;5115704;27;52357;-66
2023/05/30 06:02:33;;;;;;;;;4.50;4.25;;;;;17.18;46.61;101847.41;5116374;27;45480;-67
2023/05/30 06:04:58;;;;;;;;;3.25;3.25;;;;;17.18;46.81;101852.81;5114856;27;46883;-66
2023/05/30 06:07:24;;;;;;;;;5.00;4.50;;;;;17.23;46.85;101852.59;5131749;27;53053;-66
2023/05/30 06:09:49;;;;;;;;;3.25;3.25;;;;;17.27;46.61;101844.19;5115873;27;45301;-65
2023/05/30 06:12:14;;;;;;;;;4.25;2.00;;;;;17.29;46.38;101844.97;5115743;27;50008;-65
2023/05/30 06:14:40;;;;;;;;;5.75;3.25;;;;;17.30;46.70;101841.31;5114489;27;47110;-63
2023/05/30 06:17:07;;;;;;;;;4.25;3.75;;;;;17.36;46.65;101857.22;5116032;27;45496;-66
2023/05/30 06:19:32;;;;;;;;;4.50;3.00;;;;;17.44;45.69;101861.38;5115945;27;45351;-65
2023/05/30 06:21:57;;;;;;;;;6.00;4.75;;;;;17.48;46.34;101857.50;5114077;27;57818;-62
2023/05/30 06:24:23;;;;;;;;;7.75;5.00;;;;;17.53;45.74;101853.56;5115822;27;46039;-61
2023/05/30 06:26:48;;;;;;;;;4.75;4.75;;;;;17.55;45.71;101857.06;5107954;27;62765;-62
2023/05/30 06:29:13;;;;;;;;;5.75;4.00;;;;;17.57;45.61;101857.84;5115859;27;45344;-62
2023/05/30 06:31:38;;;;;;;;;5.25;4.00;;;;;17.56;45.69;101858.81;5115431;27;59054;-61
2023/05/30 06:34:04;;;;;;;;;8.75;5.00;;;;;17.58;46.15;101858.72;5114988;27;46065;-61
2023/05/30 06:36:30;;;;;;;;;7.25;5.75;;;;;17.61;45.93;101861.25;5103931;27;45376;-63
2023/05/30 06:38:56;;;;;;;;;4.75;3.00;;;;;17.67;45.97;101852.81;5102134;27;45528;-62
2023/05/30 06:41:22;;;;;;;;;3.75;3.00;;;;;17.67;45.47;101850.97;5101695;27;45281;-63
2023/05/30 06:43:47;;;;;;;;;6.25;5.00;;;;;17.75;45.85;101854.13;5101573;27;45444;-62
2023/05/30 06:46:13;;;;;;;;;7.00;5.25;;;;;17.82;45.85;101848.31;5101874;27;54102;-61
2023/05/30 06:48:38;;;;;;;;;4.25;3.25;;;;;17.85;45.39;101853.56;5102046;27;45726;-61
2023/05/30 06:51:04;;;;;;;;;5.00;3.00;;;;;17.86;45.24;101853.50;5101389;27;57723;-62
2023/05/30 06:53:30;;;;;;;;;5.25;3.75;;;;;17.88;45.23;101856.09;5101581;27;46285;-62
2023/05/30 06:55:55;;;;;;;;;5.75;5.75;;;;;17.91;45.18;101864.06;5101071;27;56108;-62
2023/05/30 06:58:20;;;;;;;;;6.25;3.25;;;;;17.96;45.38;101867.38;5101751;27;45354;-62
2023/05/30 07:00:46;;;;;;;;;5.50;4.25;;;;;17.90;44.93;101846.03;5101591;27;45464;-62
2023/05/30 07:03:12;;;;;;;;;6.50;3.00;;;;;18.03;45.28;101857.94;5101530;27;45487;-62
2023/05/30 07:05:37;;;;;;;;;3.75;3.00;;;;;18.06;44.46;101865.88;5101654;27;45342;-62
2023/05/30 07:08:02;;;;;;;;;9.25;3.50;;;;;18.08;45.07;101853.97;5101107;27;51158;-64
2023/05/30 07:10:28;;;;;;;;;5.75;4.00;;;;;18.11;45.33;101856.50;5101249;27;45498;-62
2023/05/30 07:12:53;;;;;;;;;5.25;4.00;;;;;18.08;44.41;101845.81;5101204;27;45352;-61
2023/05/30 07:15:19;;;;;;;;;4.75;3.75;;;;;18.23;44.68;101862.16;5101106;27;60922;-62
2023/05/30 07:17:44;;;;;;;;;5.00;4.00;;;;;18.26;44.78;101859.25;5101581;27;45428;-60
2023/05/30 07:20:09;;;;;;;;;4.00;4.00;;;;;18.28;44.16;101868.19;5101384;27;45337;-60
2023/05/30 07:22:37;;;;;;;;;4.25;4.25;;;;;18.30;44.06;101860.81;5101516;27;45296;-62
2023/05/30 07:25:03;;;;;;;;;4.00;4.00;;;;;18.29;44.28;101856.38;5101215;27;45547;-63
2023/05/30 07:27:28;;;;;;;;;9.75;5.00;;;;;18.33;44.52;101861.50;5101223;27;45472;-62
2023/05/30 07:29:53;;;;;;;;;4.75;4.75;;;;;18.40;44.56;101862.88;5101070;27;56276;-62
2023/05/30 07:32:19;;;;;;;;;7.50;4.25;;;;;18.43;44.35;101854.56;5101199;27;45403;-62
2023/05/30 07:34:44;;;;;;;;;5.25;5.25;;;;;18.44;44.28;101853.59;5100887;27;45455;-63
2023/05/30 07:37:09;;;;;;;;;5.25;3.75;;;;;18.43;44.06;101845.53;5101253;27;45331;-62
2023/05/30 07:39:35;;;;;;;;;4.25;4.25;;;;;18.49;44.34;101856.00;5100712;27;45484;-61
2023/05/30 07:42:00;;;;;;;;;4.75;4.00;;;;;18.54;44.24;101853.91;5101048;27;46638;-61
2023/05/30 07:44:26;;;;;;;;;6.75;4.50;;;;;18.57;44.03;101850.13;5101087;27;45347;-62
2023/05/30 07:46:52;;;;;;;;;4.25;3.00;;;;;18.62;43.63;101851.63;5098906;27;45273;-61
2023/05/30 07:49:19;;;;;;;;;8.75;3.25;;;;;18.68;43.49;101848.50;5100792;27;45710;-61
2023/05/30 07:51:44;;;;;;;;;4.25;4.25;;;;;18.69;43.57;101852.97;5100981;27;46209;-60
2023/05/30 07:54:09;;;;;;;;;5.50;4.50;;;;;18.77;43.73;101860.66;5100681;27;45324;-60
2023/05/30 07:56:35;;;;;;;;;8.50;4.00;;;;;18.74;43.41;101848.13;5100893;27;45286;-61
2023/05/30 07:59:00;;;;;;;;;6.25;6.00;;;;;18.82;43.02;101855.78;5100670;27;45273;-61
2023/05/30 08:01:27;;;;;;;;;5.25;4.00;;;;;18.81;43.42;101860.34;5100729;27;51785;-62
2023/05/30 08:03:52;;;;;;;;;2.50;2.50;;;;;18.79;43.57;101864.16;5100534;27;45379;-62
2023/05/30 08:06:19;;;;;;;;;6.50;3.25;;;;;18.81;43.76;101864.91;5100820;27;45289;-62
2023/05/30 08:08:44;;;;;;;;;7.50;3.25;;;;;18.86;43.86;101865.50;5100681;27;45907;-61
2023/05/30 08:11:10;;;;;;;;;3.75;3.25;;;;;18.84;43.05;101865.59;5100230;27;45388;-61
2023/05/30 08:13:35;;;;;;;;;4.75;3.75;;;;;18.93;43.47;101871.44;5100527;27;45353;-61
2023/05/30 08:16:01;;;;;;;;;10.00;5.25;;;;;18.94;43.61;101855.03;5100977;27;45282;-60
2023/05/30 08:18:30;;;;;;;;;5.00;5.00;;;;;19.02;43.76;101870.84;5100444;27;45541;-61
2023/05/30 08:20:56;;;;;;;;;4.75;4.50;;;;;19.06;43.14;101866.94;5100428;27;45428;-61
2023/05/30 08:23:21;;;;;;;;;7.00;5.00;;;;;19.09;43.19;101870.34;5100260;27;45331;-60
2023/05/30 08:25:46;;;;;;;;;9.50;4.00;;;;;19.09;43.06;101866.78;5100231;27;45348;-61
2023/05/30 08:28:12;;;;;;;;;7.25;4.75;;;;;19.09;43.12;101864.94;5099822;27;56678;-61
2023/05/30 08:30:38;;;;;;;;;7.50;3.00;;;;;19.11;42.80;101873.88;5100316;27;46798;-62
2023/05/30 08:33:04;;;;;;;;;5.75;3.25;;;;;19.11;42.96;101863.00;5100122;27;45242;-62
2023/05/30 08:35:29;;;;;;;;;2.00;0.75;;;;;19.10;42.99;101852.22;5100266;27;45525;-61
2023/05/30 08:37:57;;;;;;;;;6.25;3.75;;;;;19.14;43.06;101862.78;5099896;27;45454;-61
2023/05/30 08:40:25;;;;;;;;;8.75;3.25;;;;;19.20;43.30;101875.13;5099830;27;46264;-62
2023/05/30 08:42:51;;;;;;;;;3.50;2.50;;;;;19.20;43.05;101867.84;5099895;27;45165;-61
2023/05/30 08:45:16;;;;;;;;;3.75;3.00;;;;;19.22;42.93;101860.44;5100208;27;45336;-64
2023/05/30 08:47:43;;;;;;;;;10.00;4.00;;;;;19.22;43.25;101859.59;5098781;27;45316;-61
2023/05/30 08:50:09;;;;;;;;;5.25;4.25;;;;;19.23;43.61;101854.03;5100052;27;45386;-62
2023/05/30 08:52:35;;;;;;;;;5.00;4.75;;;;;19.27;43.37;101852.88;5099813;27;45343;-60
2023/05/30 08:55:10;;;;;;;;;5.50;4.75;;;;;19.31;43.47;101849.97;5099831;27;45431;-61
2023/05/30 08:57:48;;;;;;;;;4.00;3.00;;;;;19.38;43.47;101864.91;5100249;27;45345;-61
2023/05/30 09:00:15;;;;;;;;;4.00;4.00;;;;;19.43;43.61;101857.31;5099744;27;46420;-62
2023/05/30 09:02:42;;;;;;;;;4.25;3.25;;;;;19.49;43.41;101844.22;5099862;27;45355;-61
2023/05/30 09:05:08;;;;;;;;;6.25;5.25;;;;;19.50;43.07;101839.66;5099878;27;45391;-59
2023/05/30 09:07:37;;;;;;;;;7.50;6.00;;;;;19.64;43.01;101850.50;5099791;27;45531;-62
2023/05/30 09:10:04;;;;;;;;;4.00;4.00;;;;;19.72;42.90;101850.88;5099252;27;45400;-63
2023/05/30 09:12:30;;;;;;;;;8.75;4.25;;;;;19.76;43.04;101855.13;5099636;27;45262;-61
2023/05/30 09:14:56;;;;;;;;;6.25;3.75;;;;;19.79;42.58;101854.06;5099552;27;45290;-61
2023/05/30 09:17:21;;;;;;;;;5.50;4.25;;;;;19.78;42.65;101846.84;5099820;27;45487;-62
2023/05/30 09:19:48;;;;;;;;;4.50;3.00;;;;;19.83;42.94;101851.00;5099694;27;46107;-62
2023/05/30 09:22:14;;;;;;;;;3.75;3.00;;;;;19.89;43.00;101852.47;5099714;27;45451;-61
2023/05/30 09:24:59;;;;;;;;;3.75;3.00;;;;;19.90;42.83;101856.94;5099259;27;45413;-62
2023/05/30 09:27:26;;;;;;;;;4.25;4.25;;;;;19.94;42.72;101845.72;5086163;27;46010;-61
2023/05/30 09:29:52;;;;;;;;;5.50;4.50;;;;;19.99;42.79;101853.56;5098994;27;46350;-61
2023/05/30 09:32:17;;;;;;;;;6.75;5.00;;;;;19.96;42.83;101845.63;5099492;27;45382;-63
2023/05/30 09:34:56;;;;;;;;;6.75;5.00;;;;;20.04;43.02;101856.88;5099280;27;45486;-62
2023/05/30 09:37:25;;;;;;;;;8.25;4.50;;;;;20.08;42.98;101844.78;5099540;27;45327;-61
2023/05/30 09:40:06;;;;;;;;;4.50;4.50;;;;;20.11;42.60;101847.31;5098779;27;45363;-60
2023/05/30 09:42:45;;;;;;;;;4.75;4.75;;;;;20.15;42.57;101837.97;5099347;27;45325;-62
2023/05/30 09:45:12;;;;;;;;;4.25;3.50;;;;;20.21;43.02;101839.38;5099252;27;45403;-62
2023/05/30 09:47:44;;;;;;;;;9.75;3.75;;;;;20.27;42.69;101847.13;5099130;27;45517;-62
2023/05/30 09:50:12;;;;;;;;;6.00;3.00;;;;;20.28;42.43;101830.69;5099102;27;46333;-62
2023/05/30 09:52:38;;;;;;;;;7.75;4.00;;;;;20.32;42.24;101843.13;5099060;27;45274;-61
2023/05/30 09:55:06;;;;;;;;;7.50;3.25;;;;;20.38;42.12;101840.00;5099165;27;45448;-60
2023/05/30 09:57:35;;;;;;;;;4.00;3.75;;;;;20.37;42.43;101832.78;5099397;27;45313;-62
2023/05/30 10:00:05;;;;;;;;;8.25;4.00;;;;;20.44;42.72;101833.22;5098875;27;45310;-61
2023/05/30 10:02:31;;;;;;;;;7.50;4.25;;;;;20.47;41.82;101830.31;5099226;27;45371;-62
2023/05/30 10:04:56;;;;;;;;;3.00;3.00;;;;;20.51;42.30;101842.72;5098518;27;52104;-61
2023/05/30 10:07:22;;;;;;;;;5.25;3.50;;;;;20.60;42.38;101838.47;5099152;27;45322;-62
2023/05/30 10:09:48;;;;;;;;;5.00;4.75;;;;;20.61;42.25;101840.22;5098700;27;46115;-62
2023/05/30 10:12:14;;;;;;;;;3.75;3.00;;;;;20.69;41.96;101835.09;5102619;27;45231;-61
2023/05/30 10:14:39;;;;;;;;;9.00;5.00;;;;;20.71;41.90;101838.59;5101096;27;45601;-62
2023/05/30 10:17:07;;;;;;;;;8.50;4.00;;;;;20.74;42.34;101836.53;5102515;27;45455;-62
2023/05/30 10:19:43;;;;;;;;;6.00;3.75;;;;;20.77;41.61;101835.41;5102259;27;45334;-61
2023/05/30 10:22:12;;;;;;;;;3.00;3.00;;;;;20.77;41.99;101836.28;5102497;27;45246;-61
2023/05/30 10:24:41;;;;;;;;;4.00;4.00;;;;;20.85;41.82;101824.84;5100530;27;45320;-61
2023/05/30 10:27:11;;;;;;;;;5.25;2.50;;;;;20.85;41.47;101824.84;5091279;27;45475;-61
2023/05/30 10:29:46;;;;;;;;;4.75;4.00;;;;;20.91;41.49;101840.78;5099666;27;47098;-62
2023/05/30 10:32:15;;;;;;;;;5.00;3.50;;;;;20.94;41.36;101834.22;5102414;27;45353;-61
2023/05/30 10:34:53;;;;;;;;;9.00;3.75;;;;;20.95;41.59;101834.09;5101886;27;45506;-61
2023/05/30 10:37:20;;;;;;;;;4.50;4.50;;;;;20.84;41.56;101803.19;5102103;27;45369;-63
2023/05/30 10:40:16;;;;;;;;;8.25;5.25;;;;;20.96;41.63;101813.16;5101600;27;45212;-61
2023/05/30 10:42:54;;;;;;;;;6.00;5.00;;;;;21.06;40.92;101836.94;5102252;27;45286;-61
2023/05/30 10:45:27;;;;;;;;;5.50;5.50;;;;;21.11;41.33;101832.00;5102115;27;45552;-61
2023/05/30 10:48:27;;;;;;;;;5.00;2.25;;;;;21.18;41.01;101824.28;5102125;27;45319;-61
2023/05/30 10:50:59;;;;;;;;;5.00;5.00;;;;;21.26;41.01;101827.34;5092637;27;46228;-61
2023/05/30 10:53:24;;;;;;;;;6.50;3.75;;;;;21.29;40.89;101810.75;5102118;27;45384;-62
2023/05/30 10:55:50;;;;;;;;;6.50;4.00;;;;;21.31;40.77;101813.34;5101780;27;45476;-60
2023/05/30 10:58:34;;;;;;;;;8.00;7.75;;;;;21.39;40.71;101805.47;5102058;27;45310;-61
2023/05/30 11:01:27;;;;;;;;;8.00;4.75;;;;;21.45;40.66;101816.78;5101781;27;45270;-61
2023/05/30 11:04:04;;;;;;;;;8.50;6.00;;;;;21.47;40.08;101800.31;5101578;27;45372;-60
2023/05/30 11:06:35;;;;;;;;;6.50;6.00;;;;;21.55;40.28;101803.34;5102065;27;45439;-61
2023/05/30 11:09:08;;;;;;;;;5.50;5.50;;;;;21.59;40.26;101791.22;5101729;27;45281;-61
2023/05/30 11:11:40;;;;;;;;;9.50;6.50;;;;;21.61;40.04;101796.53;5101054;27;46061;-62
2023/05/30 11:14:06;;;;;;;;;18.75;15.25;;;;;21.69;40.10;101791.41;5101373;27;45346;-60
2023/05/30 11:16:32;;;;;;;;;15.25;13.75;;;;;21.73;39.81;101790.16;5100397;27;45314;-61
2023/05/30 11:19:10;;;;;;;;;13.00;11.50;;;;;21.77;39.88;101783.50;5101622;27;45528;-61
2023/05/30 11:21:59;;;;;;;;;12.00;11.00;;;;;21.78;39.66;101775.16;5101320;27;46151;-62
2023/05/30 11:24:26;;;;;;;;;7.25;6.00;;;;;21.94;39.89;101790.41;5100830;27;45172;-61
2023/05/30 11:26:53;;;;;;;;;12.25;9.00;;;;;21.97;39.32;101788.31;5092654;27;45381;-61
2023/05/30 11:29:47;;;;;;;;;11.00;9.00;;;;;22.07;39.26;101789.34;5096352;27;45412;-63
2023/05/30 11:32:16;;;;;;;;;6.25;6.25;;;;;22.17;39.07;101789.50;5101290;27;46185;-62
2023/05/30 11:34:42;;;;;;;;;11.50;8.00;;;;;22.22;38.55;101779.94;5100779;27;45369;-61
2023/05/30 11:37:08;;;;;;;;;6.75;5.25;;;;;22.31;38.29;101778.34;5101430;27;45364;-60
2023/05/30 11:39:34;;;;;;;;;5.00;5.00;;;;;22.38;38.66;101771.41;5101258;27;45321;-61
2023/05/30 11:42:02;;;;;;;;;10.00;4.75;;;;;22.50;37.76;101773.19;5101258;27;45465;-60
2023/05/30 11:44:31;;;;;;;;;5.50;5.50;;;;;22.60;37.56;101770.59;5101236;27;45408;-61
2023/05/30 11:47:06;;;;;;;;;3.00;3.00;;;;;22.71;38.09;101767.88;5101222;27;45246;-61
2023/05/30 11:49:33;;;;;;;;;9.25;5.00;;;;;22.79;37.75;101770.91;5101144;27;45507;-61
2023/05/30 11:51:58;;;;;;;;;14.50;13.75;;;;;22.91;37.63;101769.88;5100949;27;45341;-61
2023/05/30 11:54:26;;;;;;;;;12.00;9.00;;;;;22.96;36.59;101764.94;5100836;27;45354;-61
2023/05/30 11:56:51;;;;;;;;;8.50;6.50;;;;;23.05;36.46;101760.56;5101014;27;45424;-62
2023/05/30 11:59:19;;;;;;;;;8.25;6.00;;;;;23.12;36.54;101767.25;5116557;27;45360;-62
2023/05/30 12:01:50;;;;;;;;;2.75;2.75;;;;;23.21;35.98;101763.78;5100613;27;46619;-61
2023/05/30 12:04:16;;;;;;;;;9.00;5.25;;;;;23.32;35.33;101771.94;5100649;27;45438;-62
2023/05/30 12:06:45;;;;;;;;;3.75;3.75;;;;;23.37;35.36;101757.88;5100961;27;45418;-60
2023/05/30 12:09:11;;;;;;;;;7.75;6.00;;;;;23.34;35.17;101748.06;5100793;27;45498;-60
2023/05/30 12:11:36;;;;;;;;;5.00;5.00;;;;;23.47;35.13;101753.38;5100265;27;45368;-61
2023/05/30 12:14:02;;;;;;;;;8.50;6.25;;;;;23.52;34.52;101759.34;5100807;27;45320;-62
2023/05/30 12:16:28;;;;;;;;;6.00;6.00;;;;;23.62;35.23;101753.97;5100833;27;45295;-62
2023/05/30 12:18:54;;;;;;;;;7.50;3.75;;;;;23.74;34.35;101763.88;5100942;27;45211;-61
2023/05/30 12:21:19;;;;;;;;;4.75;3.00;;;;;23.87;34.51;101752.75;5100398;27;45897;-62
2023/05/30 12:23:46;;;;;;;;;3.00;3.00;;;;;24.01;33.93;101750.56;5100741;27;45202;-61
2023/05/30 12:26:18;;;;;;;;;9.00;6.00;;;;;24.17;33.47;101769.28;5100383;27;45404;-62
2023/05/30 12:28:45;;;;;;;;;7.00;5.00;;;;;24.22;33.30;101755.22;5100527;27;45357;-61
2023/05/30 12:31:20;;;;;;;;;4.75;3.00;;;;;24.35;33.23;101744.91;5100073;27;47143;-61
2023/05/30 12:33:45;;;;;;;;;3.75;3.75;;;;;24.45;32.82;101738.47;5099373;27;45419;-61
2023/05/30 12:36:11;;;;;;;;;5.50;4.50;;;;;24.55;33.06;101746.75;5100401;27;45432;-60
2023/05/30 12:38:37;;;;;;;;;5.25;5.00;;;;;24.67;32.47;101745.66;5100492;27;45527;-61
2023/05/30 12:41:02;;;;;;;;;7.25;4.75;;;;;24.72;32.68;101743.38;5099911;27;45366;-61
2023/05/30 12:43:28;;;;;;;;;8.50;8.25;;;;;24.76;32.59;101733.84;5099843;27;55702;-62
2023/05/30 12:46:01;;;;;;;;;12.00;8.00;;;;;24.93;32.98;101743.34;5100212;27;45479;-60
2023/05/30 12:48:27;;;;;;;;;5.25;5.25;;;;;25.12;31.73;101754.38;5100119;27;45451;-61
2023/05/30 12:50:52;;;;;;;;;6.50;5.50;;;;;25.14;32.24;101724.94;5100092;27;45889;-61
2023/05/30 12:53:18;;;;;;;;;6.25;5.00;;;;;25.39;31.36;101745.50;5100098;27;45397;-62
2023/05/30 12:55:43;;;;;;;;;9.00;7.75;;;;;25.50;31.47;101744.50;5099932;27;45388;-60
2023/05/30 12:58:09;;;;;;;;;4.75;4.75;;;;;25.57;31.13;101737.44;5100217;27;45452;-61
2023/05/30 13:00:35;;;;;;;;;8.75;6.50;;;;;25.60;31.36;101745.44;5099649;27;45391;-62
2023/05/30 13:03:02;;;;;;;;;7.50;5.00;;;;;25.69;31.81;101740.94;5100040;27;45415;-60
2023/05/30 13:05:31;;;;;;;;;7.75;5.75;;;;;25.85;31.00;101736.63;5099953;27;45193;-61
2023/05/30 13:07:56;;;;;;;;;5.25;5.25;;;;;26.00;30.99;101732.41;5100040;27;45425;-61
2023/05/30 13:10:22;;;;;;;;;3.25;2.25;;;;;26.21;29.95;101732.22;5099654;27;45408;-62
2023/05/30 13:12:48;;;;;;;;;8.25;5.25;;;;;26.28;29.74;101721.53;5099749;27;45353;-62
2023/05/30 13:15:13;;;;;;;;;5.75;4.25;;;;;26.43;29.83;101730.19;5099638;27;45276;-61
2023/05/30 13:17:38;;;;;;;;;5.25;5.00;;;;;26.54;29.44;101730.84;5099916;27;45582;-61
2023/05/30 13:20:04;;;;;;;;;5.00;4.00;;;;;26.64;30.56;101731.69;5099509;27;52843;-60
2023/05/30 13:22:30;;;;;;;;;4.00;3.00;;;;;26.81;29.70;101729.16;5100035;27;45333;-60
2023/05/30 13:24:55;;;;;;;;;5.00;5.00;;;;;26.98;29.08;101725.63;5099304;27;45441;-60
2023/05/30 13:27:21;;;;;;;;;3.50;2.25;;;;;27.02;29.57;101719.69;5099475;27;45302;-61
2023/05/30 13:29:46;;;;;;;;;4.00;4.00;;;;;27.18;29.26;101729.16;5099192;27;52262;-62
2023/05/30 13:32:11;;;;;;;;;3.75;3.00;;;;;27.26;28.77;101723.72;5099609;27;45327;-59
2023/05/30 13:34:37;;;;;;;;;3.25;2.75;;;;;27.40;28.95;101720.44;5099064;27;45260;-62
2023/05/30 13:37:02;;;;;;;;;9.50;3.00;;;;;27.52;28.57;101721.97;5099246;27;53603;-62
2023/05/30 13:39:28;;;;;;;;;4.50;3.00;;;;;27.58;27.94;101720.47;5099103;27;45320;-61
2023/05/30 13:41:53;;;;;;;;;3.50;3.00;;;;;27.64;27.79;101718.00;5099110;27;53430;-60
2023/05/30 13:44:19;;;;;;;;;2.50;2.50;;;;;27.78;27.45;101711.91;5099703;27;45473;-61
2023/05/30 13:46:44;;;;;;;;;3.00;2.00;;;;;28.03;26.87;101712.13;5102166;27;45361;-61
2023/05/30 13:49:10;;;;;;;;;3.00;3.00;;;;;28.14;27.55;101709.97;5102824;27;46121;-61
2023/05/30 13:51:36;;;;;;;;;3.75;3.75;;;;;28.26;26.51;101699.56;5103102;27;45492;-61
2023/05/30 13:54:03;;;;;;;;;1.25;1.25;;;;;28.45;26.64;101701.22;5102781;27;45348;-59
2023/05/30 13:56:28;;;;;;;;;3.75;3.25;;;;;28.51;26.06;101695.91;5102952;27;45656;-62
2023/05/30 13:58:54;;;;;;;;;3.00;3.00;;;;;28.58;25.69;101697.00;5102638;27;45357;-60
2023/05/30 14:01:19;;;;;;;;;2.75;1.75;;;;;28.54;25.65;101686.47;5101619;27;45315;-62
2023/05/30 14:03:45;;;;;;;;;2.25;2.25;;;;;28.66;24.69;101698.09;5102733;27;45445;-60
2023/05/30 14:06:10;;;;;;;;;5.00;3.75;;;;;28.72;25.04;101687.25;5102739;27;45598;-61
2023/05/30 14:08:35;;;;;;;;;3.00;3.00;;;;;28.88;24.80;101697.53;5102065;27;60323;-60
2023/05/30 14:11:01;;;;;;;;;3.50;3.50;;;;;29.14;23.75;101692.78;5102511;27;45235;-60
2023/05/30 14:13:26;;;;;;;;;3.50;3.50;;;;;29.36;23.49;101707.88;5102791;27;45338;-61
2023/05/30 14:15:52;;;;;;;;;2.25;2.25;;;;;29.61;23.29;101692.19;5101994;27;59203;-62
2023/05/30 14:18:18;;;;;;;;;3.50;2.75;;;;;29.79;22.91;101684.63;5102333;27;45340;-62
2023/05/30 14:20:43;;;;;;;;;4.25;2.25;;;;;30.23;23.02;101695.31;5102605;27;45527;-62
2023/05/30 14:23:09;;;;;;;;;2.00;2.00;;;;;30.52;21.70;101695.66;5102801;27;45325;-61
2023/05/30 14:25:35;;;;;;;;;2.50;2.50;;;;;30.83;21.14;101679.09;5102120;27;45236;-60
2023/05/30 14:28:01;;;;;;;;;4.00;3.00;;;;;31.19;20.85;101685.00;5102202;27;45979;-61
2023/05/30 14:30:26;;;;;;;;;3.25;3.25;;;;;31.50;20.29;101687.75;5102294;27;45393;-61
2023/05/30 14:32:51;;;;;;;;;3.50;3.50;;;;;31.70;20.70;101683.47;5102369;27;45692;-62
2023/05/30 14:35:17;;;;;;;;;2.00;2.00;;;;;31.94;20.45;101688.81;5101894;27;51295;-62
2023/05/30 14:37:44;;;;;;;;;3.75;2.50;;;;;32.05;19.79;101687.50;5100891;27;45567;-62
2023/05/30 14:40:09;;;;;;;;;5.50;2.75;;;;;32.21;19.40;101690.16;5101794;27;45427;-61
2023/05/30 14:42:35;;;;;;;;;3.50;3.00;;;;;32.44;19.30;101686.41;5102093;27;45402;-62
2023/05/30 14:45:00;;;;;;;;;3.00;2.75;;;;;32.42;19.51;101692.16;5101822;27;45539;-61
2023/05/30 14:47:26;;;;;;;;;4.50;3.00;;;;;32.38;19.17;101685.28;5101633;27;45457;-61
2023/05/30 14:49:51;;;;;;;;;1.25;1.25;;;;;32.42;20.00;101688.53;5101502;27;53959;-61
2023/05/30 14:52:17;;;;;;;;;5.00;3.25;;;;;32.53;19.05;101688.06;5102087;27;45337;-61
2023/05/30 14:54:42;;;;;;;;;5.00;3.25;;;;;32.63;19.15;101688.63;5101552;27;45553;-64
2023/05/30 14:57:08;;;;;;;;;2.50;2.25;;;;;32.55;18.73;101692.38;5101454;27;46276;-61
2023/05/30 14:59:33;;;;;;;;;3.00;2.75;;;;;32.38;17.97;101681.63;5101868;27;45423;-61
2023/05/30 15:01:59;;;;;;;;;3.00;3.00;;;;;32.20;18.86;101695.88;5101718;27;45232;-61
2023/05/30 15:04:26;;;;;;;;;3.00;2.25;;;;;32.08;19.56;101689.00;5101652;27;45342;-61
2023/05/30 15:06:51;;;;;;;;;4.50;3.75;;;;;32.03;19.19;101692.38;5101631;27;46158;-61
2023/05/30 15:09:19;;;;;;;;;1.75;1.75;;;;;32.08;19.13;101691.78;5101568;27;45393;-62
2023/05/30 15:11:44;;;;;;;;;5.00;3.75;;;;;32.00;19.51;101691.88;5101620;27;45361;-61
2023/05/30 15:14:10;;;;;;;;;4.75;4.00;;;;;32.09;19.34;101699.94;5101856;27;45349;-60
2023/05/30 15:16:35;;;;;;;;;2.25;2.25;;;;;32.15;19.30;101693.66;5101524;27;46499;-61
2023/05/30 15:19:01;;;;;;;;;3.00;3.00;;;;;32.03;19.19;101692.38;5101647;27;45376;-60
2023/05/30 15:21:26;;;;;;;;;3.00;3.00;;;;;31.92;20.01;101698.34;5101617;27;45276;-61
2023/05/30 15:23:51;;;;;;;;;2.00;2.00;;;;;31.84;19.61;101690.97;5101129;27;55643;-60
2023/05/30 15:26:17;;;;;;;;;3.75;2.00;;;;;31.83;19.42;101680.06;5100172;27;65841;-61
2023/05/30 15:28:44;;;;;;;;;3.00;3.00;;;;;31.84;19.31;101682.66;5101654;27;45274;-60
2023/05/30 15:31:10;;;;;;;;;1.25;1.25;;;;;31.91;19.80;101702.16;5101385;27;45237;-62
2023/05/30 15:33:35;;;;;;;;;4.00;3.25;;;;;31.85;19.00;101687.16;5100761;27;45885;-61
2023/05/30 15:36:01;;;;;;;;;2.50;1.25;;;;;31.79;19.19;101687.91;5101325;27;45518;-60
2023/05/30 15:38:26;;;;;;;;;3.00;3.00;;;;;31.70;19.68;101700.09;5101267;27;45263;-60
2023/05/30 15:40:54;;;;;;;;;4.75;4.50;;;;;31.58;19.61;101696.84;5101030;27;45393;-61
2023/05/30 15:43:20;;;;;;;;;7.00;4.00;;;;;31.37;19.49;101690.28;5101025;27;45531;-61
2023/05/30 15:45:45;;;;;;;;;4.25;2.50;;;;;31.18;19.61;101688.81;5100996;27;45355;-60
2023/05/30 15:48:10;;;;;;;;;3.25;3.25;;;;;31.02;20.30;101681.44;5100337;27;60136;-58
2023/05/30 15:50:36;;;;;;;;;4.50;3.50;;;;;30.84;20.13;101687.22;5101129;27;45608;-61
2023/05/30 15:53:01;;;;;;;;;4.00;4.00;;;;;30.68;20.27;101692.84;5100244;27;60184;-61
2023/05/30 15:55:26;;;;;;;;;4.00;4.00;;;;;30.52;20.35;101689.25;5100077;27;53886;-61
2023/05/30 15:57:51;;;;;;;;;6.50;5.00;;;;;30.47;21.08;101692.50;5100971;27;45289;-59
2023/05/30 16:00:17;;;;;;;;;4.50;4.50;;;;;30.37;20.65;101678.88;5100860;27;45452;-61
2023/05/30 16:02:43;;;;;;;;;3.50;2.50;;;;;30.30;20.99;101676.97;5100690;27;46313;-61
2023/05/30 16:05:09;;;;;;;;;4.75;3.75;;;;;30.21;20.38;101687.19;5100863;27;45218;-60
2023/05/30 16:07:34;;;;;;;;;4.00;3.00;;;;;30.08;21.21;101678.59;5100475;27;45267;-61
2023/05/30 16:09:59;;;;;;;;;3.00;3.00;;;;;30.10;21.42;101676.53;5099824;27;45337;-59
2023/05/30 16:12:25;;;;;;;;;3.25;3.25;;;;;30.08;21.46;101675.81;5100806;27;45461;-60
2023/05/30 16:14:50;;;;;;;;;5.25;4.25;;;;;30.00;20.61;101660.09;5100112;27;46228;-60
2023/05/30 16:17:16;;;;;;;;;5.25;4.00;;;;;29.94;21.08;101671.00;5100566;27;45512;-62
2023/05/30 16:19:41;;;;;;;;;3.50;3.50;;;;;29.84;20.80;101668.38;5100646;27;45369;-62
2023/05/30 16:22:07;;;;;;;;;5.75;5.50;;;;;29.75;21.16;101661.13;5100388;27;45351;-60
2023/05/30 16:24:32;;;;;;;;;3.50;3.25;;;;;29.70;21.56;101664.41;5099359;27;45349;-61
2023/05/30 16:26:58;;;;;;;;;4.50;3.25;;;;;29.62;21.53;101647.81;5091041;27;45353;-60
2023/05/30 16:29:23;;;;;;;;;7.00;6.00;;;;;29.52;21.58;101636.06;5096127;27;45546;-61
2023/05/30 16:31:49;;;;;;;;;4.75;4.00;;;;;29.55;21.69;101649.53;5099104;27;46235;-60
2023/05/30 16:34:14;;;;;;;;;4.50;4.50;;;;;29.44;21.88;101635.19;5099836;27;46105;-61
2023/05/30 16:36:41;;;;;;;;;2.75;2.00;;;;;29.41;22.35;101649.38;5100487;27;45364;-60
2023/05/30 16:39:09;;;;;;;;;5.25;4.00;;;;;29.32;21.87;101648.47;5100537;27;45260;-61
2023/05/30 16:41:37;;;;;;;;;9.50;5.00;;;;;29.18;22.63;101649.09;5100173;27;46080;-60
2023/05/30 16:44:02;;;;;;;;;8.25;5.00;;;;;29.01;23.22;101645.44;5099970;27;45439;-62
2023/05/30 16:46:28;;;;;;;;;6.75;3.00;;;;;28.82;23.09;101627.28;5099658;27;56711;-60
2023/05/30 16:48:53;;;;;;;;;3.75;3.25;;;;;28.82;23.07;101638.34;5100264;27;45523;-60
2023/05/30 16:51:18;;;;;;;;;3.25;3.25;;;;;28.86;23.56;101642.47;5100191;27;45598;-62
2023/05/30 16:53:44;;;;;;;;;6.00;4.50;;;;;28.87;23.25;101640.56;5099855;27;45377;-60
2023/05/30 16:56:16;;;;;;;;;6.25;6.00;;;;;28.84;23.40;101633.47;5099836;27;45334;-62
2023/05/30 16:58:42;;;;;;;;;9.25;5.25;;;;;28.76;22.78;101630.69;5100165;27;45314;-61